sensor_id;sensor_type;location;lat;lon;timestamp;P1;durP1;ratioP1;P2;durP2;ratioP2
6467;SDS011;3267;48.794;9.928;2023-07-24T04:02:33;7.20;;;5.10;;
6467;SDS011;3267;48.794;9.928;2023-07-24T04:04:59;7.03;;;5.30;;
6467;SDS011;3267;48.794;9.928;2023-07-24T04:07:25;8.20;;;5.57;;
6467;SDS011;3267;48.794;9.928;2023-07-24T04:09:51;7.25;;;4.90;;
6467;SDS011;3267;48.794;9.928;2023-07-24T04:12:18;11.10;;;4.80;;
6467;SDS011;3267;48.794;9.928;2023-07-24T04:14:44;9.23;;;5.90;;
6467;SDS011;3267;48.794;9.928;2023-07-24T04:17:10;7.47;;;4.95;;
6467;SDS011;3267;48.794;9.928;2023-07-24T04:19:36;6.70;;;5.03;;
6467;SDS011;3267;48.794;9.928;2023-07-24T04:22:02;7.30;;;4.72;;
6467;SDS011;3267;48.794;9.928;2023-07-24T04:24:28;8.77;;;5.13;;
6467;SDS011;3267;48.794;9.928;2023-07-24T04:26:54;5.63;;;4.68;;
6467;SDS011;3267;48.794;9.928;2023-07-24T04:29:20;7.30;;;5.18;;
6467;SDS011;3267;48.794;9.928;2023-07-24T04:31:49;8.57;;;4.68;;
6467;SDS011;3267;48.794;9.928;2023-07-24T04:34:15;6.20;;;4.68;;
6467;SDS011;3267;48.794;9.928;2023-07-24T04:36:41;10.07;;;5.50;;
6467;SDS011;3267;48.794;9.928;2023-07-24T04:39:07;7.38;;;5.20;;
6467;SDS011;3267;48.794;9.928;2023-07-24T04:41:33;10.75;;;4.70;;
6467;SDS011;3267;48.794;9.928;2023-07-24T04:43:59;6.72;;;5.20;;
6467;SDS011;3267;48.794;9.928;2023-07-24T04:46:25;7.22;;;5.32;;
6467;SDS011;3267;48.794;9.928;2023-07-24T04:48:51;6.25;;;4.80;;
6467;SDS011;3267;48.794;9.928;2023-07-24T04:51:17;5.65;;;3.88;;
6467;SDS011;3267;48.794;9.928;2023-07-24T04:53:44;10.60;;;5.10;;
6467;SDS011;3267;48.794;9.928;2023-07-24T04:56:10;5.88;;;5.18;;
6467;SDS011;3267;48.794;9.928;2023-07-24T04:58:36;13.18;;;4.75;;
6467;SDS011;3267;48.794;9.928;2023-07-24T05:01:02;7.72;;;4.70;;
6467;SDS011;3267;48.794;9.928;2023-07-24T05:03:29;10.30;;;5.22;;
6467;SDS011;3267;48.794;9.928;2023-07-24T05:05:55;5.32;;;4.65;;
6467;SDS011;3267;48.794;9.928;2023-07-24T05:08:22;7.15;;;5.50;;
6467;SDS011;3267;48.794;9.928;2023-07-24T05:10:53;6.50;;;4.20;;
6467;SDS011;3267;48.794;9.928;2023-07-24T05:13:22;7.53;;;5.50;;
6467;SDS011;3267;48.794;9.928;2023-07-24T05:15:48;7.75;;;5.30;;
6467;SDS011;3267;48.794;9.928;2023-07-24T05:18:14;13.63;;;4.80;;
6467;SDS011;3267;48.794;9.928;2023-07-24T05:20:46;5.30;;;3.35;;
6467;SDS011;3267;48.794;9.928;2023-07-24T05:23:13;8.15;;;5.45;;
6467;SDS011;3267;48.794;9.928;2023-07-24T05:25:40;6.30;;;4.63;;
6467;SDS011;3267;48.794;9.928;2023-07-24T05:28:06;6.88;;;4.90;;
6467;SDS011;3267;48.794;9.928;2023-07-24T05:30:32;6.30;;;4.68;;
6467;SDS011;3267;48.794;9.928;2023-07-24T05:32:58;10.57;;;5.18;;
6467;SDS011;3267;48.794;9.928;2023-07-24T05:35:24;7.45;;;5.55;;
6467;SDS011;3267;48.794;9.928;2023-07-24T05:37:50;10.65;;;5.40;;
6467;SDS011;3267;48.794;9.928;2023-07-24T05:40:16;10.40;;;5.15;;
6467;SDS011;3267;48.794;9.928;2023-07-24T05:42:43;7.07;;;5.18;;
6467;SDS011;3267;48.794;9.928;2023-07-24T05:45:09;9.10;;;5.40;;
6467;SDS011;3267;48.794;9.928;2023-07-24T05:47:39;8.00;;;5.30;;
6467;SDS011;3267;48.794;9.928;2023-07-24T05:50:05;10.38;;;5.68;;
6467;SDS011;3267;48.794;9.928;2023-07-24T05:52:31;7.10;;;5.10;;
6467;SDS011;3267;48.794;9.928;2023-07-24T05:54:57;8.65;;;5.22;;
6467;SDS011;3267;48.794;9.928;2023-07-24T05:57:23;7.50;;;4.88;;
6467;SDS011;3267;48.794;9.928;2023-07-24T05:59:49;7.18;;;5.15;;
6467;SDS011;3267;48.794;9.928;2023-07-24T06:02:17;7.63;;;4.72;;
6467;SDS011;3267;48.794;9.928;2023-07-24T06:04:43;7.00;;;4.97;;
6467;SDS011;3267;48.794;9.928;2023-07-24T06:07:09;7.80;;;5.10;;
6467;SDS011;3267;48.794;9.928;2023-07-24T06:09:35;8.38;;;5.32;;
6467;SDS011;3267;48.794;9.928;2023-07-24T06:12:01;7.28;;;5.35;;
6467;SDS011;3267;48.794;9.928;2023-07-24T06:14:27;6.43;;;4.95;;
6467;SDS011;3267;48.794;9.928;2023-07-24T06:16:53;6.80;;;5.15;;
6467;SDS011;3267;48.794;9.928;2023-07-24T06:19:19;12.32;;;5.38;;
6467;SDS011;3267;48.794;9.928;2023-07-24T06:21:46;8.55;;;5.40;;
6467;SDS011;3267;48.794;9.928;2023-07-24T06:24:12;7.53;;;5.82;;
6467;SDS011;3267;48.794;9.928;2023-07-24T06:26:38;10.52;;;5.88;;
6467;SDS011;3267;48.794;9.928;2023-07-24T06:29:04;6.88;;;5.65;;
6467;SDS011;3267;48.794;9.928;2023-07-24T06:31:31;8.43;;;5.30;;
6467;SDS011;3267;48.794;9.928;2023-07-24T06:33:57;7.70;;;5.38;;
6467;SDS011;3267;48.794;9.928;2023-07-24T06:36:23;7.68;;;5.78;;
6467;SDS011;3267;48.794;9.928;2023-07-24T06:38:49;13.20;;;5.50;;
6467;SDS011;3267;48.794;9.928;2023-07-24T06:41:15;12.00;;;5.32;;
6467;SDS011;3267;48.794;9.928;2023-07-24T06:43:44;7.18;;;5.18;;
6467;SDS011;3267;48.794;9.928;2023-07-24T06:46:09;7.85;;;5.18;;
6467;SDS011;3267;48.794;9.928;2023-07-24T06:48:35;7.43;;;5.47;;
6467;SDS011;3267;48.794;9.928;2023-07-24T06:51:01;6.38;;;4.93;;
6467;SDS011;3267;48.794;9.928;2023-07-24T06:53:27;7.78;;;5.53;;
6467;SDS011;3267;48.794;9.928;2023-07-24T06:55:53;7.20;;;5.97;;
6467;SDS011;3267;48.794;9.928;2023-07-24T06:58:20;6.63;;;5.07;;
6467;SDS011;3267;48.794;9.928;2023-07-24T07:00:45;8.27;;;5.80;;
6467;SDS011;3267;48.794;9.928;2023-07-24T07:03:11;8.75;;;5.90;;
6467;SDS011;3267;48.794;9.928;2023-07-24T07:05:37;8.45;;;5.03;;
6467;SDS011;3267;48.794;9.928;2023-07-24T07:08:04;7.63;;;4.50;;
6467;SDS011;3267;48.794;9.928;2023-07-24T07:10:33;7.80;;;5.50;;
6467;SDS011;3267;48.794;9.928;2023-07-24T07:12:58;9.23;;;5.40;;
6467;SDS011;3267;48.794;9.928;2023-07-24T07:15:24;8.95;;;4.95;;
6467;SDS011;3267;48.794;9.928;2023-07-24T07:17:50;11.10;;;5.55;;
6467;SDS011;3267;48.794;9.928;2023-07-24T07:20:16;9.35;;;4.95;;
6467;SDS011;3267;48.794;9.928;2023-07-24T07:22:42;7.47;;;5.00;;
6467;SDS011;3267;48.794;9.928;2023-07-24T07:25:09;8.68;;;4.95;;
6467;SDS011;3267;48.794;9.928;2023-07-24T07:27:35;8.98;;;4.88;;
6467;SDS011;3267;48.794;9.928;2023-07-24T07:30:01;7.63;;;5.35;;
6467;SDS011;3267;48.794;9.928;2023-07-24T07:32:27;8.05;;;5.30;;
6467;SDS011;3267;48.794;9.928;2023-07-24T07:34:53;7.80;;;4.70;;
6467;SDS011;3267;48.794;9.928;2023-07-24T07:37:19;11.20;;;5.13;;
6467;SDS011;3267;48.794;9.928;2023-07-24T07:39:46;7.60;;;5.20;;
6467;SDS011;3267;48.794;9.928;2023-07-24T07:42:12;8.02;;;4.90;;
6467;SDS011;3267;48.794;9.928;2023-07-24T07:44:39;8.20;;;4.65;;
6467;SDS011;3267;48.794;9.928;2023-07-24T07:47:05;9.50;;;5.53;;
6467;SDS011;3267;48.794;9.928;2023-07-24T07:49:32;7.18;;;5.32;;
6467;SDS011;3267;48.794;9.928;2023-07-24T07:52:01;10.10;;;4.93;;
6467;SDS011;3267;48.794;9.928;2023-07-24T07:54:27;7.90;;;4.70;;
6467;SDS011;3267;48.794;9.928;2023-07-24T07:56:55;9.02;;;5.03;;
6467;SDS011;3267;48.794;9.928;2023-07-24T07:59:27;7.93;;;5.47;;
6467;SDS011;3267;48.794;9.928;2023-07-24T08:01:54;7.07;;;4.43;;
6467;SDS011;3267;48.794;9.928;2023-07-24T08:04:20;8.23;;;4.20;;
6467;SDS011;3267;48.794;9.928;2023-07-24T08:06:46;6.68;;;4.88;;
6467;SDS011;3267;48.794;9.928;2023-07-24T08:09:12;13.90;;;5.63;;
6467;SDS011;3267;48.794;9.928;2023-07-24T08:11:38;8.48;;;5.68;;
6467;SDS011;3267;48.794;9.928;2023-07-24T08:14:04;8.63;;;5.00;;
6467;SDS011;3267;48.794;9.928;2023-07-24T08:16:30;7.20;;;4.97;;
6467;SDS011;3267;48.794;9.928;2023-07-24T08:18:56;7.50;;;5.47;;
6467;SDS011;3267;48.794;9.928;2023-07-24T08:21:22;6.75;;;5.25;;
6467;SDS011;3267;48.794;9.928;2023-07-24T08:23:51;5.20;;;4.50;;
6467;SDS011;3267;48.794;9.928;2023-07-24T08:26:17;6.85;;;5.22;;
6467;SDS011;3267;48.794;9.928;2023-07-24T08:28:43;6.40;;;4.50;;
6467;SDS011;3267;48.794;9.928;2023-07-24T08:31:09;9.52;;;5.03;;
6467;SDS011;3267;48.794;9.928;2023-07-24T08:33:35;7.28;;;4.78;;
6467;SDS011;3267;48.794;9.928;2023-07-24T08:36:05;7.10;;;4.32;;
6467;SDS011;3267;48.794;9.928;2023-07-24T08:38:34;6.15;;;4.90;;
6467;SDS011;3267;48.794;9.928;2023-07-24T08:41:02;8.20;;;5.30;;
6467;SDS011;3267;48.794;9.928;2023-07-24T08:43:29;7.93;;;4.80;;
6467;SDS011;3267;48.794;9.928;2023-07-24T08:45:58;11.02;;;5.40;;
6467;SDS011;3267;48.794;9.928;2023-07-24T08:48:30;6.82;;;4.45;;
6467;SDS011;3267;48.794;9.928;2023-07-24T08:51:04;6.70;;;2.70;;
6467;SDS011;3267;48.794;9.928;2023-07-24T08:53:32;7.70;;;5.18;;
6467;SDS011;3267;48.794;9.928;2023-07-24T08:56:02;6.72;;;5.07;;
6467;SDS011;3267;48.794;9.928;2023-07-24T08:58:28;5.68;;;4.32;;
6467;SDS011;3267;48.794;9.928;2023-07-24T09:00:56;6.60;;;5.10;;
6467;SDS011;3267;48.794;9.928;2023-07-24T09:03:24;5.60;;;3.65;;
6467;SDS011;3267;48.794;9.928;2023-07-24T09:05:52;7.90;;;4.30;;
6467;SDS011;3267;48.794;9.928;2023-07-24T09:11:14;8.65;;;4.50;;
6467;SDS011;3267;48.794;9.928;2023-07-24T09:13:41;5.97;;;4.70;;
6467;SDS011;3267;48.794;9.928;2023-07-24T09:16:08;6.00;;;4.90;;
6467;SDS011;3267;48.794;9.928;2023-07-24T09:18:46;6.43;;;4.78;;
6467;SDS011;3267;48.794;9.928;2023-07-24T09:21:12;8.98;;;5.28;;
6467;SDS011;3267;48.794;9.928;2023-07-24T09:23:38;6.32;;;5.13;;
6467;SDS011;3267;48.794;9.928;2023-07-24T09:26:08;6.82;;;4.85;;
6467;SDS011;3267;48.794;9.928;2023-07-24T09:28:34;8.38;;;5.20;;
6467;SDS011;3267;48.794;9.928;2023-07-24T09:31:02;8.45;;;5.15;;
6467;SDS011;3267;48.794;9.928;2023-07-24T09:33:39;7.70;;;4.45;;
6467;SDS011;3267;48.794;9.928;2023-07-24T09:36:06;12.10;;;4.72;;
6467;SDS011;3267;48.794;9.928;2023-07-24T09:38:36;7.32;;;5.53;;
6467;SDS011;3267;48.794;9.928;2023-07-24T09:41:03;6.40;;;4.70;;
6467;SDS011;3267;48.794;9.928;2023-07-24T09:43:30;7.20;;;4.10;;
6467;SDS011;3267;48.794;9.928;2023-07-24T09:45:56;6.20;;;4.78;;
6467;SDS011;3267;48.794;9.928;2023-07-24T09:48:23;5.10;;;4.53;;
6467;SDS011;3267;48.794;9.928;2023-07-24T09:50:55;10.73;;;5.03;;
6467;SDS011;3267;48.794;9.928;2023-07-24T09:53:24;7.32;;;4.65;;
6467;SDS011;3267;48.794;9.928;2023-07-24T09:56:00;5.53;;;4.22;;
6467;SDS011;3267;48.794;9.928;2023-07-24T09:58:27;5.35;;;4.05;;
6467;SDS011;3267;48.794;9.928;2023-07-24T10:00:54;6.93;;;3.90;;
6467;SDS011;3267;48.794;9.928;2023-07-24T10:03:21;7.70;;;4.18;;
6467;SDS011;3267;48.794;9.928;2023-07-24T10:05:47;6.22;;;4.70;;
6467;SDS011;3267;48.794;9.928;2023-07-24T10:08:14;6.40;;;4.20;;
6467;SDS011;3267;48.794;9.928;2023-07-24T10:10:43;7.10;;;4.30;;
6467;SDS011;3267;48.794;9.928;2023-07-24T10:13:10;6.50;;;3.75;;
6467;SDS011;3267;48.794;9.928;2023-07-24T10:15:38;4.70;;;3.63;;
6467;SDS011;3267;48.794;9.928;2023-07-24T10:18:06;5.85;;;3.67;;
6467;SDS011;3267;48.794;9.928;2023-07-24T10:20:35;5.63;;;4.05;;
6467;SDS011;3267;48.794;9.928;2023-07-24T10:23:04;4.43;;;3.35;;
6467;SDS011;3267;48.794;9.928;2023-07-24T10:25:31;4.18;;;3.45;;
6467;SDS011;3267;48.794;9.928;2023-07-24T10:28:01;5.93;;;4.28;;
6467;SDS011;3267;48.794;9.928;2023-07-24T10:30:41;6.05;;;4.00;;
6467;SDS011;3267;48.794;9.928;2023-07-24T10:33:08;10.00;;;3.90;;
6467;SDS011;3267;48.794;9.928;2023-07-24T10:35:49;6.38;;;4.30;;
6467;SDS011;3267;48.794;9.928;2023-07-24T10:38:18;6.90;;;4.15;;
6467;SDS011;3267;48.794;9.928;2023-07-24T10:40:45;4.38;;;3.97;;
6467;SDS011;3267;48.794;9.928;2023-07-24T10:43:14;5.43;;;4.38;;
6467;SDS011;3267;48.794;9.928;2023-07-24T10:45:50;5.18;;;4.40;;
6467;SDS011;3267;48.794;9.928;2023-07-24T10:48:18;8.00;;;4.60;;
6467;SDS011;3267;48.794;9.928;2023-07-24T10:50:49;5.50;;;4.20;;
6467;SDS011;3267;48.794;9.928;2023-07-24T10:53:18;4.60;;;3.83;;
6467;SDS011;3267;48.794;9.928;2023-07-24T10:55:53;4.45;;;3.63;;
6467;SDS011;3267;48.794;9.928;2023-07-24T10:58:19;9.25;;;4.15;;
6467;SDS011;3267;48.794;9.928;2023-07-24T11:00:45;5.22;;;4.50;;
6467;SDS011;3267;48.794;9.928;2023-07-24T11:03:13;6.15;;;4.53;;
6467;SDS011;3267;48.794;9.928;2023-07-24T11:05:43;5.57;;;4.03;;
6467;SDS011;3267;48.794;9.928;2023-07-24T11:08:14;7.45;;;4.72;;
6467;SDS011;3267;48.794;9.928;2023-07-24T11:10:51;5.38;;;4.22;;
6467;SDS011;3267;48.794;9.928;2023-07-24T11:13:21;9.35;;;5.35;;
6467;SDS011;3267;48.794;9.928;2023-07-24T11:15:49;12.07;;;5.47;;
6467;SDS011;3267;48.794;9.928;2023-07-24T11:18:15;7.78;;;5.40;;
6467;SDS011;3267;48.794;9.928;2023-07-24T11:20:45;8.00;;;5.68;;
6467;SDS011;3267;48.794;9.928;2023-07-24T11:23:13;6.88;;;5.03;;
6467;SDS011;3267;48.794;9.928;2023-07-24T11:25:40;7.47;;;5.35;;
6467;SDS011;3267;48.794;9.928;2023-07-24T11:28:09;9.27;;;5.10;;
6467;SDS011;3267;48.794;9.928;2023-07-24T11:30:37;7.90;;;4.63;;
6467;SDS011;3267;48.794;9.928;2023-07-24T11:33:04;4.82;;;4.22;;
6467;SDS011;3267;48.794;9.928;2023-07-24T11:35:31;5.22;;;4.03;;
6467;SDS011;3267;48.794;9.928;2023-07-24T11:37:57;5.70;;;4.35;;
6467;SDS011;3267;48.794;9.928;2023-07-24T11:40:31;4.85;;;4.05;;
6467;SDS011;3267;48.794;9.928;2023-07-24T11:42:58;6.13;;;4.35;;
6467;SDS011;3267;48.794;9.928;2023-07-24T11:45:24;5.57;;;4.20;;
6467;SDS011;3267;48.794;9.928;2023-07-24T11:47:50;4.93;;;3.80;;
6467;SDS011;3267;48.794;9.928;2023-07-24T11:50:21;4.82;;;4.10;;
6467;SDS011;3267;48.794;9.928;2023-07-24T11:52:49;7.10;;;4.90;;
6467;SDS011;3267;48.794;9.928;2023-07-24T11:55:20;7.07;;;4.60;;
6467;SDS011;3267;48.794;9.928;2023-07-24T11:57:59;7.85;;;4.60;;
6467;SDS011;3267;48.794;9.928;2023-07-24T12:00:25;7.35;;;4.82;;
6467;SDS011;3267;48.794;9.928;2023-07-24T12:02:52;9.18;;;4.65;;
6467;SDS011;3267;48.794;9.928;2023-07-24T12:05:19;6.50;;;4.63;;
6467;SDS011;3267;48.794;9.928;2023-07-24T12:07:45;5.20;;;4.05;;
6467;SDS011;3267;48.794;9.928;2023-07-24T12:10:11;5.50;;;4.15;;
6467;SDS011;3267;48.794;9.928;2023-07-24T12:12:45;5.80;;;4.47;;
6467;SDS011;3267;48.794;9.928;2023-07-24T12:15:12;4.20;;;3.75;;
6467;SDS011;3267;48.794;9.928;2023-07-24T12:17:39;5.85;;;4.22;;
6467;SDS011;3267;48.794;9.928;2023-07-24T12:20:06;6.78;;;4.30;;
6467;SDS011;3267;48.794;9.928;2023-07-24T12:22:36;6.15;;;3.85;;
6467;SDS011;3267;48.794;9.928;2023-07-24T12:25:03;4.65;;;3.92;;
6467;SDS011;3267;48.794;9.928;2023-07-24T12:27:30;4.80;;;4.20;;
6467;SDS011;3267;48.794;9.928;2023-07-24T12:29:56;4.43;;;3.83;;
6467;SDS011;3267;48.794;9.928;2023-07-24T12:32:22;4.25;;;3.40;;
6467;SDS011;3267;48.794;9.928;2023-07-24T12:34:49;4.30;;;3.67;;
6467;SDS011;3267;48.794;9.928;2023-07-24T12:37:16;5.57;;;3.70;;
6467;SDS011;3267;48.794;9.928;2023-07-24T12:39:42;4.78;;;3.67;;
6467;SDS011;3267;48.794;9.928;2023-07-24T12:42:09;4.13;;;3.20;;
6467;SDS011;3267;48.794;9.928;2023-07-24T12:44:35;3.30;;;3.00;;
6467;SDS011;3267;48.794;9.928;2023-07-24T12:47:01;4.80;;;3.03;;
6467;SDS011;3267;48.794;9.928;2023-07-24T12:49:27;4.45;;;3.78;;
6467;SDS011;3267;48.794;9.928;2023-07-24T12:51:52;3.30;;;2.90;;
6467;SDS011;3267;48.794;9.928;2023-07-24T12:54:18;5.15;;;3.42;;
6467;SDS011;3267;48.794;9.928;2023-07-24T12:56:45;3.38;;;2.85;;
6467;SDS011;3267;48.794;9.928;2023-07-24T12:59:11;4.43;;;3.28;;
6467;SDS011;3267;48.794;9.928;2023-07-24T13:01:36;3.20;;;2.92;;
6467;SDS011;3267;48.794;9.928;2023-07-24T13:04:02;3.20;;;2.80;;
6467;SDS011;3267;48.794;9.928;2023-07-24T13:06:28;3.33;;;3.03;;
6467;SDS011;3267;48.794;9.928;2023-07-24T13:08:53;7.90;;;2.88;;
6467;SDS011;3267;48.794;9.928;2023-07-24T13:11:19;3.05;;;2.58;;
6467;SDS011;3267;48.794;9.928;2023-07-24T13:13:45;3.55;;;3.10;;
6467;SDS011;3267;48.794;9.928;2023-07-24T13:16:10;2.97;;;2.55;;
6467;SDS011;3267;48.794;9.928;2023-07-24T13:18:36;3.85;;;3.05;;
6467;SDS011;3267;48.794;9.928;2023-07-24T13:21:02;2.83;;;2.63;;
6467;SDS011;3267;48.794;9.928;2023-07-24T13:23:27;4.63;;;2.78;;
6467;SDS011;3267;48.794;9.928;2023-07-24T13:25:53;4.82;;;3.53;;
6467;SDS011;3267;48.794;9.928;2023-07-24T13:28:18;4.75;;;3.05;;
6467;SDS011;3267;48.794;9.928;2023-07-24T13:30:45;3.78;;;3.30;;
6467;SDS011;3267;48.794;9.928;2023-07-24T13:33:11;3.53;;;3.08;;
6467;SDS011;3267;48.794;9.928;2023-07-24T13:35:37;3.00;;;2.72;;
6467;SDS011;3267;48.794;9.928;2023-07-24T13:38:02;3.50;;;3.10;;
6467;SDS011;3267;48.794;9.928;2023-07-24T13:40:28;4.85;;;3.40;;
6467;SDS011;3267;48.794;9.928;2023-07-24T13:42:54;3.20;;;2.90;;
6467;SDS011;3267;48.794;9.928;2023-07-24T13:45:19;3.80;;;3.30;;
6467;SDS011;3267;48.794;9.928;2023-07-24T13:47:45;3.13;;;2.78;;
6467;SDS011;3267;48.794;9.928;2023-07-24T13:50:11;3.95;;;2.90;;
6467;SDS011;3267;48.794;9.928;2023-07-24T13:52:36;3.78;;;3.22;;
6467;SDS011;3267;48.794;9.928;2023-07-24T13:55:02;3.85;;;3.20;;
6467;SDS011;3267;48.794;9.928;2023-07-24T13:57:28;4.70;;;3.20;;
6467;SDS011;3267;48.794;9.928;2023-07-24T13:59:54;3.30;;;2.88;;
6467;SDS011;3267;48.794;9.928;2023-07-24T14:02:21;3.67;;;3.10;;
6467;SDS011;3267;48.794;9.928;2023-07-24T14:04:46;3.20;;;2.90;;
6467;SDS011;3267;48.794;9.928;2023-07-24T14:07:12;3.50;;;3.20;;
6467;SDS011;3267;48.794;9.928;2023-07-24T14:09:38;3.05;;;2.78;;
6467;SDS011;3267;48.794;9.928;2023-07-24T14:12:04;3.42;;;3.08;;
6467;SDS011;3267;48.794;9.928;2023-07-24T14:14:30;3.17;;;2.88;;
6467;SDS011;3267;48.794;9.928;2023-07-24T14:16:56;3.97;;;3.45;;
6467;SDS011;3267;48.794;9.928;2023-07-24T14:19:22;4.43;;;3.60;;
6467;SDS011;3267;48.794;9.928;2023-07-24T14:21:51;4.30;;;3.40;;
6467;SDS011;3267;48.794;9.928;2023-07-24T14:24:17;3.42;;;3.10;;
6467;SDS011;3267;48.794;9.928;2023-07-24T14:26:44;4.00;;;3.60;;
6467;SDS011;3267;48.794;9.928;2023-07-24T14:29:10;3.67;;;3.05;;
6467;SDS011;3267;48.794;9.928;2023-07-24T14:31:36;4.22;;;3.13;;
6467;SDS011;3267;48.794;9.928;2023-07-24T14:34:03;4.13;;;3.13;;
6467;SDS011;3267;48.794;9.928;2023-07-24T14:36:29;3.20;;;2.83;;
6467;SDS011;3267;48.794;9.928;2023-07-24T14:39:02;6.35;;;2.92;;
6467;SDS011;3267;48.794;9.928;2023-07-24T14:41:28;3.90;;;2.67;;
6467;SDS011;3267;48.794;9.928;2023-07-24T14:43:54;3.30;;;2.90;;
6467;SDS011;3267;48.794;9.928;2023-07-24T14:46:20;3.65;;;2.92;;
6467;SDS011;3267;48.794;9.928;2023-07-24T14:48:45;3.28;;;2.97;;
6467;SDS011;3267;48.794;9.928;2023-07-24T14:51:11;5.40;;;3.10;;
6467;SDS011;3267;48.794;9.928;2023-07-24T14:53:36;5.13;;;3.72;;
6467;SDS011;3267;48.794;9.928;2023-07-24T14:56:03;3.58;;;2.90;;
6467;SDS011;3267;48.794;9.928;2023-07-24T14:58:29;4.38;;;2.85;;
6467;SDS011;3267;48.794;9.928;2023-07-24T15:00:55;4.15;;;2.72;;
6467;SDS011;3267;48.794;9.928;2023-07-24T15:03:21;3.95;;;3.17;;
6467;SDS011;3267;48.794;9.928;2023-07-24T15:05:47;3.22;;;2.92;;
6467;SDS011;3267;48.794;9.928;2023-07-24T15:08:13;3.45;;;3.13;;
6467;SDS011;3267;48.794;9.928;2023-07-24T15:10:39;4.57;;;2.47;;
6467;SDS011;3267;48.794;9.928;2023-07-24T15:13:04;3.10;;;2.80;;
6467;SDS011;3267;48.794;9.928;2023-07-24T15:15:30;4.13;;;3.13;;
6467;SDS011;3267;48.794;9.928;2023-07-24T15:17:58;2.78;;;2.40;;
6467;SDS011;3267;48.794;9.928;2023-07-24T15:20:24;3.20;;;2.50;;
6467;SDS011;3267;48.794;9.928;2023-07-24T15:22:50;2.92;;;2.28;;
6467;SDS011;3267;48.794;9.928;2023-07-24T15:25:18;2.88;;;2.58;;
6467;SDS011;3267;48.794;9.928;2023-07-24T15:27:47;2.83;;;2.25;;
6467;SDS011;3267;48.794;9.928;2023-07-24T15:30:12;2.63;;;2.40;;
6467;SDS011;3267;48.794;9.928;2023-07-24T15:32:39;2.80;;;2.50;;
6467;SDS011;3267;48.794;9.928;2023-07-24T15:35:04;3.17;;;2.88;;
6467;SDS011;3267;48.794;9.928;2023-07-24T15:37:30;2.97;;;2.42;;
6467;SDS011;3267;48.794;9.928;2023-07-24T15:39:57;4.85;;;2.80;;
6467;SDS011;3267;48.794;9.928;2023-07-24T15:42:23;3.03;;;2.72;;
6467;SDS011;3267;48.794;9.928;2023-07-24T15:44:49;3.42;;;3.13;;
6467;SDS011;3267;48.794;9.928;2023-07-24T15:47:16;2.92;;;2.60;;
6467;SDS011;3267;48.794;9.928;2023-07-24T15:49:41;2.88;;;2.47;;
6467;SDS011;3267;48.794;9.928;2023-07-24T15:52:07;2.92;;;2.60;;
6467;SDS011;3267;48.794;9.928;2023-07-24T15:54:35;2.80;;;2.50;;
6467;SDS011;3267;48.794;9.928;2023-07-24T15:57:01;3.20;;;2.47;;
6467;SDS011;3267;48.794;9.928;2023-07-24T15:59:27;3.83;;;2.10;;
6467;SDS011;3267;48.794;9.928;2023-07-24T16:01:53;2.55;;;2.35;;
6467;SDS011;3267;48.794;9.928;2023-07-24T16:04:19;3.15;;;2.42;;
6467;SDS011;3267;48.794;9.928;2023-07-24T16:06:44;2.92;;;2.65;;
6467;SDS011;3267;48.794;9.928;2023-07-24T16:09:10;4.75;;;2.80;;
6467;SDS011;3267;48.794;9.928;2023-07-24T16:11:36;2.42;;;2.08;;
6467;SDS011;3267;48.794;9.928;2023-07-24T16:14:01;3.20;;;2.67;;
6467;SDS011;3267;48.794;9.928;2023-07-24T16:16:28;3.22;;;2.45;;
6467;SDS011;3267;48.794;9.928;2023-07-24T16:21:55;3.00;;;2.65;;
6467;SDS011;3267;48.794;9.928;2023-07-24T16:24:21;4.80;;;2.40;;
6467;SDS011;3267;48.794;9.928;2023-07-24T16:26:47;3.13;;;2.60;;
6467;SDS011;3267;48.794;9.928;2023-07-24T16:29:14;3.13;;;2.40;;
6467;SDS011;3267;48.794;9.928;2023-07-24T16:31:40;3.58;;;2.92;;
6467;SDS011;3267;48.794;9.928;2023-07-24T16:34:06;5.68;;;3.00;;
6467;SDS011;3267;48.794;9.928;2023-07-24T16:36:32;2.72;;;2.42;;
6467;SDS011;3267;48.794;9.928;2023-07-24T16:39:00;2.80;;;2.60;;
6467;SDS011;3267;48.794;9.928;2023-07-24T16:41:26;2.80;;;2.60;;
6467;SDS011;3267;48.794;9.928;2023-07-24T16:43:52;3.15;;;2.85;;
6467;SDS011;3267;48.794;9.928;2023-07-24T16:46:17;4.32;;;2.85;;
6467;SDS011;3267;48.794;9.928;2023-07-24T16:48:43;3.30;;;2.63;;
6467;SDS011;3267;48.794;9.928;2023-07-24T16:51:12;5.45;;;3.20;;
6467;SDS011;3267;48.794;9.928;2023-07-24T16:53:41;3.03;;;2.72;;
6467;SDS011;3267;48.794;9.928;2023-07-24T16:56:08;3.55;;;2.83;;
6467;SDS011;3267;48.794;9.928;2023-07-24T16:58:33;3.67;;;2.53;;
6467;SDS011;3267;48.794;9.928;2023-07-24T17:00:59;3.30;;;2.38;;
6467;SDS011;3267;48.794;9.928;2023-07-24T17:03:26;4.05;;;3.03;;
6467;SDS011;3267;48.794;9.928;2023-07-24T17:05:52;3.42;;;2.55;;
6467;SDS011;3267;48.794;9.928;2023-07-24T17:08:17;3.47;;;3.17;;
6467;SDS011;3267;48.794;9.928;2023-07-24T17:10:47;4.15;;;3.03;;
6467;SDS011;3267;48.794;9.928;2023-07-24T17:13:14;2.63;;;2.40;;
6467;SDS011;3267;48.794;9.928;2023-07-24T17:15:40;3.10;;;2.80;;
6467;SDS011;3267;48.794;9.928;2023-07-24T17:18:07;3.42;;;2.60;;
6467;SDS011;3267;48.794;9.928;2023-07-24T17:20:32;4.82;;;2.83;;
6467;SDS011;3267;48.794;9.928;2023-07-24T17:22:58;3.20;;;2.80;;
6467;SDS011;3267;48.794;9.928;2023-07-24T17:25:24;3.10;;;2.42;;
6467;SDS011;3267;48.794;9.928;2023-07-24T17:27:50;3.67;;;2.72;;
6467;SDS011;3267;48.794;9.928;2023-07-24T17:30:16;3.85;;;3.00;;
6467;SDS011;3267;48.794;9.928;2023-07-24T17:32:42;4.88;;;2.78;;
6467;SDS011;3267;48.794;9.928;2023-07-24T17:35:16;3.15;;;2.85;;
6467;SDS011;3267;48.794;9.928;2023-07-24T17:37:45;2.95;;;2.67;;
6467;SDS011;3267;48.794;9.928;2023-07-24T17:40:10;3.42;;;2.72;;
6467;SDS011;3267;48.794;9.928;2023-07-24T17:42:36;3.45;;;2.75;;
6467;SDS011;3267;48.794;9.928;2023-07-24T17:45:05;4.85;;;2.58;;
6467;SDS011;3267;48.794;9.928;2023-07-24T17:47:32;2.70;;;2.50;;
6467;SDS011;3267;48.794;9.928;2023-07-24T17:49:58;3.00;;;2.70;;
6467;SDS011;3267;48.794;9.928;2023-07-24T17:52:24;3.38;;;2.90;;
6467;SDS011;3267;48.794;9.928;2023-07-24T17:54:50;3.80;;;2.42;;
6467;SDS011;3267;48.794;9.928;2023-07-24T17:57:15;5.97;;;3.10;;
6467;SDS011;3267;48.794;9.928;2023-07-24T17:59:42;3.38;;;2.55;;
6467;SDS011;3267;48.794;9.928;2023-07-24T18:02:08;2.78;;;2.45;;
6467;SDS011;3267;48.794;9.928;2023-07-24T18:04:34;3.67;;;2.80;;
6467;SDS011;3267;48.794;9.928;2023-07-24T18:07:00;3.42;;;2.63;;
6467;SDS011;3267;48.794;9.928;2023-07-24T18:09:26;2.22;;;2.03;;
6467;SDS011;3267;48.794;9.928;2023-07-24T18:11:52;2.40;;;2.20;;
6467;SDS011;3267;48.794;9.928;2023-07-24T18:14:18;2.72;;;2.53;;
6467;SDS011;3267;48.794;9.928;2023-07-24T18:16:45;2.17;;;1.88;;
6467;SDS011;3267;48.794;9.928;2023-07-24T18:19:11;3.45;;;2.03;;
6467;SDS011;3267;48.794;9.928;2023-07-24T18:21:37;5.10;;;2.33;;
6467;SDS011;3267;48.794;9.928;2023-07-24T18:24:03;2.72;;;2.22;;
6467;SDS011;3267;48.794;9.928;2023-07-24T18:26:33;2.33;;;1.90;;
6467;SDS011;3267;48.794;9.928;2023-07-24T18:28:59;2.45;;;1.95;;
6467;SDS011;3267;48.794;9.928;2023-07-24T18:31:28;2.20;;;2.00;;
6467;SDS011;3267;48.794;9.928;2023-07-24T18:33:54;3.65;;;2.20;;
6467;SDS011;3267;48.794;9.928;2023-07-24T18:36:20;2.55;;;1.90;;
6467;SDS011;3267;48.794;9.928;2023-07-24T18:38:46;2.15;;;1.95;;
6467;SDS011;3267;48.794;9.928;2023-07-24T18:41:12;2.40;;;2.20;;
6467;SDS011;3267;48.794;9.928;2023-07-24T18:43:37;2.45;;;2.10;;
6467;SDS011;3267;48.794;9.928;2023-07-24T18:46:04;1.85;;;1.75;;
6467;SDS011;3267;48.794;9.928;2023-07-24T18:48:30;1.98;;;1.60;;
6467;SDS011;3267;48.794;9.928;2023-07-24T18:50:56;2.20;;;1.92;;
6467;SDS011;3267;48.794;9.928;2023-07-24T18:53:22;1.92;;;1.73;;
6467;SDS011;3267;48.794;9.928;2023-07-24T18:55:48;2.35;;;2.13;;
6467;SDS011;3267;48.794;9.928;2023-07-24T18:58:14;2.30;;;1.98;;
6467;SDS011;3267;48.794;9.928;2023-07-24T19:00:39;1.92;;;1.67;;
6467;SDS011;3267;48.794;9.928;2023-07-24T19:03:05;2.33;;;1.88;;
6467;SDS011;3267;48.794;9.928;2023-07-24T19:05:31;2.20;;;1.48;;
6467;SDS011;3267;48.794;9.928;2023-07-24T19:07:56;1.58;;;1.48;;
6467;SDS011;3267;48.794;9.928;2023-07-24T19:10:22;2.35;;;2.05;;
6467;SDS011;3267;48.794;9.928;2023-07-24T19:12:48;2.08;;;1.90;;
6467;SDS011;3267;48.794;9.928;2023-07-24T19:15:13;2.42;;;1.98;;
6467;SDS011;3267;48.794;9.928;2023-07-24T19:17:39;2.78;;;1.80;;
6467;SDS011;3267;48.794;9.928;2023-07-24T19:20:08;1.88;;;1.60;;